createdAt,value
2018-05-03T00:00:49.886Z,0.00
2018-05-03T00:01:49.828Z,0.00
2018-05-03T00:02:49.835Z,0.00
2018-05-03T00:03:49.773Z,0.00
2018-05-03T00:04:49.753Z,0.00
2018-05-03T00:05:49.713Z,0.00
2018-05-03T00:06:49.691Z,0.00
2018-05-03T00:07:50.161Z,0.00
2018-05-03T00:08:49.633Z,0.00
2018-05-03T00:09:49.607Z,0.00
2018-05-03T00:10:49.577Z,0.00
2018-05-03T00:11:49.553Z,0.00
2018-05-03T00:12:49.560Z,0.00
2018-05-03T00:13:49.500Z,0.00
2018-05-03T00:14:49.469Z,0.00
2018-05-03T00:15:49.444Z,0.00
2018-05-03T00:16:49.443Z,0.00
2018-05-03T00:17:49.390Z,0.00
2018-05-03T00:18:49.435Z,0.00
2018-05-03T00:19:49.334Z,0.00
2018-05-03T00:20:49.304Z,0.00
2018-05-03T00:21:49.280Z,0.00
2018-05-03T00:22:49.254Z,0.00
2018-05-03T00:23:49.276Z,0.00
2018-05-03T00:24:49.202Z,0.00
2018-05-03T00:25:49.172Z,0.00
2018-05-03T00:26:49.146Z,0.00
2018-05-03T00:27:49.120Z,0.00
2018-05-03T00:28:49.128Z,0.00
2018-05-03T00:29:49.065Z,0.00
2018-05-03T00:30:49.072Z,0.00
2018-05-03T00:31:49.018Z,0.00
2018-05-03T00:32:48.983Z,0.00
2018-05-03T00:33:48.964Z,0.00
2018-05-03T00:34:48.971Z,0.00
2018-05-03T00:35:48.909Z,0.00
2018-05-03T00:36:48.885Z,0.00
2018-05-03T00:37:48.852Z,0.00
2018-05-03T00:38:48.821Z,0.00
2018-05-03T00:39:48.846Z,0.00
2018-05-03T00:40:48.770Z,0.00
2018-05-03T00:41:48.748Z,0.00
2018-05-03T00:42:48.724Z,0.00
2018-05-03T00:43:48.695Z,0.00
2018-05-03T00:44:48.688Z,0.00
2018-05-03T00:45:48.673Z,0.00
2018-05-03T00:46:48.605Z,0.00
2018-05-03T00:47:48.585Z,0.00
2018-05-03T00:48:48.554Z,0.00
2018-05-03T00:49:48.528Z,0.00
2018-05-03T00:50:48.533Z,0.00
2018-05-03T00:51:48.473Z,0.00
2018-05-03T00:52:48.444Z,0.00
2018-05-03T00:53:48.425Z,0.00
2018-05-03T00:54:48.397Z,0.00
2018-05-03T00:55:48.398Z,0.00
2018-05-03T00:56:48.343Z,0.00
2018-05-03T00:57:48.309Z,0.00
2018-05-03T00:58:48.282Z,0.00
2018-05-03T00:59:48.263Z,0.00
2018-05-03T01:00:48.274Z,0.00
2018-05-03T01:01:48.202Z,0.00
2018-05-03T01:02:48.182Z,0.00
2018-05-03T01:03:48.153Z,0.00
2018-05-03T01:04:48.155Z,0.00
2018-05-03T01:05:48.102Z,0.00
2018-05-03T01:06:48.072Z,0.00
2018-05-03T01:07:48.087Z,0.00
2018-05-03T01:08:48.043Z,0.00
2018-05-03T01:09:48.027Z,0.00
2018-05-03T01:10:47.963Z,0.00
2018-05-03T01:11:47.938Z,0.00
2018-05-03T01:12:47.908Z,0.00
2018-05-03T01:13:47.909Z,0.00
2018-05-03T01:14:47.854Z,0.00
2018-05-03T01:15:47.868Z,0.00
2018-05-03T01:16:47.818Z,0.00
2018-05-03T01:17:47.778Z,0.00
2018-05-03T01:18:47.745Z,0.00
2018-05-03T01:19:47.758Z,0.00
2018-05-03T01:20:47.698Z,0.00
2018-05-03T01:21:47.663Z,0.00
2018-05-03T01:22:47.639Z,0.00
2018-05-03T01:23:47.616Z,0.00
2018-05-03T01:24:47.627Z,0.00
2018-05-03T01:25:47.596Z,0.00
2018-05-03T01:26:47.529Z,0.00
2018-05-03T01:27:47.503Z,0.00
2018-05-03T01:28:47.479Z,0.00
2018-05-03T01:29:47.487Z,0.00
2018-05-03T01:30:47.423Z,0.00
2018-05-03T01:31:47.433Z,0.00
2018-05-03T01:32:47.366Z,0.00
2018-05-03T01:33:47.343Z,0.00
2018-05-03T01:34:47.317Z,0.00
2018-05-03T01:35:47.293Z,0.00
2018-05-03T01:36:47.298Z,0.00
2018-05-03T01:37:47.234Z,0.00
2018-05-03T01:38:47.206Z,0.00
2018-05-03T01:39:47.179Z,0.00
2018-05-03T01:40:47.164Z,0.00
2018-05-03T01:41:47.175Z,0.00
2018-05-03T01:42:47.101Z,0.00
2018-05-03T01:43:47.079Z,0.00
2018-05-03T01:44:47.044Z,0.00
2018-05-03T01:45:47.024Z,0.00
2018-05-03T01:46:47.032Z,0.00
2018-05-03T01:47:47.008Z,0.00
2018-05-03T01:48:46.937Z,0.00
2018-05-03T01:49:46.919Z,0.00
2018-05-03T01:50:46.885Z,0.00
2018-05-03T01:51:46.854Z,0.00
2018-05-03T01:52:46.858Z,0.00
2018-05-03T01:53:46.800Z,0.00
2018-05-03T01:54:46.779Z,0.00
2018-05-03T01:55:46.788Z,0.00
2018-05-03T01:56:46.722Z,0.00
2018-05-03T01:57:46.721Z,0.00
2018-05-03T01:58:46.673Z,0.00
2018-05-03T01:59:46.641Z,0.00
2018-05-03T02:00:46.612Z,0.00
2018-05-03T02:01:46.587Z,0.00
2018-05-03T02:02:46.589Z,0.00
2018-05-03T02:03:46.575Z,0.00
2018-05-03T02:04:46.512Z,0.00
2018-05-03T02:05:46.728Z,0.00
2018-05-03T02:06:46.454Z,0.00
2018-05-03T02:07:46.463Z,0.00
2018-05-03T02:08:46.397Z,0.00
2018-05-03T02:09:46.372Z,0.00
2018-05-03T02:10:46.393Z,0.00
2018-05-03T02:11:46.361Z,0.00
2018-05-03T02:12:46.321Z,0.00
2018-05-03T02:13:46.267Z,0.00
2018-05-03T02:14:46.237Z,0.00
2018-05-03T02:15:46.214Z,0.00
2018-05-03T02:16:46.179Z,0.00
2018-05-03T02:17:46.199Z,0.00
2018-05-03T02:18:46.125Z,0.00
2018-05-03T02:19:46.107Z,0.00
2018-05-03T02:20:46.070Z,0.00
2018-05-03T02:21:46.093Z,0.00
2018-05-03T02:22:46.021Z,0.00
2018-05-03T02:23:45.992Z,0.00
2018-05-03T02:24:45.962Z,0.00
2018-05-03T02:25:45.943Z,0.00
2018-05-03T02:26:45.947Z,0.00
2018-05-03T02:27:45.890Z,0.00
2018-05-03T02:28:45.887Z,0.00
2018-05-03T02:29:45.861Z,0.00
2018-05-03T02:30:45.805Z,0.00
2018-05-03T02:31:45.780Z,0.00
2018-05-03T02:32:45.747Z,0.00
2018-05-03T02:33:45.722Z,0.00
2018-05-03T02:34:45.722Z,0.00
2018-05-03T02:35:45.665Z,0.00
2018-05-03T02:36:45.689Z,0.00
2018-05-03T02:37:45.615Z,0.00
2018-05-03T02:38:45.586Z,0.00
2018-05-03T02:39:45.589Z,0.00
2018-05-03T02:40:45.568Z,0.00
2018-05-03T02:41:45.557Z,0.00
2018-05-03T02:42:45.475Z,0.00
2018-05-03T02:43:45.455Z,0.00
2018-05-03T02:44:45.418Z,0.00
2018-05-03T02:45:45.393Z,0.00
2018-05-03T02:46:45.399Z,0.00
2018-05-03T02:47:45.340Z,0.00
2018-05-03T02:48:45.308Z,0.00
2018-05-03T02:49:45.290Z,0.00
2018-05-03T02:50:45.254Z,0.00
2018-05-03T02:51:45.267Z,0.00
2018-05-03T02:52:45.199Z,0.00
2018-05-03T02:53:45.221Z,0.00
2018-05-03T02:54:45.145Z,0.00
2018-05-03T02:55:45.115Z,0.00
2018-05-03T02:56:45.092Z,0.00
2018-05-03T02:57:45.060Z,0.00
2018-05-03T02:58:45.083Z,0.00
2018-05-03T02:59:45.006Z,0.00
2018-05-03T03:00:44.976Z,0.00
2018-05-03T03:01:45.732Z,4.00
2018-05-03T03:02:44.934Z,4.00
2018-05-03T03:03:44.942Z,4.00
2018-05-03T03:04:44.872Z,4.00
2018-05-03T03:05:44.845Z,0.00
2018-05-03T03:06:44.813Z,4.00
2018-05-03T03:07:44.790Z,4.00
2018-05-03T03:08:44.805Z,4.00
2018-05-03T03:09:44.760Z,4.00
2018-05-03T03:10:44.705Z,8.00
2018-05-03T03:11:44.678Z,4.00
2018-05-03T03:12:44.649Z,8.00
2018-05-03T03:13:44.669Z,8.00
2018-05-03T03:14:44.601Z,12.00
2018-05-03T03:15:44.569Z,12.00
2018-05-03T03:16:44.537Z,16.00
2018-05-03T03:17:44.512Z,16.00
2018-05-03T03:18:44.523Z,16.00
2018-05-03T03:19:44.490Z,20.00
2018-05-03T03:20:44.429Z,20.00
2018-05-03T03:21:44.686Z,24.00
2018-05-03T03:22:44.379Z,28.00
2018-05-03T03:23:45.152Z,36.00
2018-05-03T03:24:44.327Z,40.00
2018-05-03T03:25:44.693Z,48.00
2018-05-03T03:26:44.270Z,56.00
2018-05-03T03:27:45.147Z,64.00
2018-05-03T03:28:44.209Z,76.00
2018-05-03T03:29:44.227Z,88.00
2018-05-03T03:30:45.143Z,100.00
2018-05-03T03:31:44.135Z,120.00
2018-05-03T03:32:44.103Z,136.00
2018-05-03T03:33:44.645Z,152.00
2018-05-03T03:34:44.082Z,168.00
2018-05-03T03:35:44.025Z,180.00
2018-05-03T03:36:43.991Z,192.00
2018-05-03T03:37:44.649Z,208.00
2018-05-03T03:38:43.991Z,228.00
2018-05-03T03:39:43.950Z,248.00
2018-05-03T03:40:44.655Z,264.00
2018-05-03T03:41:43.858Z,272.00
2018-05-03T03:42:43.909Z,280.00
2018-05-03T03:43:43.854Z,292.00
2018-05-03T03:44:44.654Z,312.00
2018-05-03T03:45:43.785Z,332.00
2018-05-03T03:46:44.555Z,372.00
2018-05-03T03:47:43.699Z,420.00
2018-05-03T03:48:43.694Z,468.00
2018-05-03T03:49:43.689Z,524.00
2018-05-03T03:50:44.155Z,580.00
2018-05-03T03:51:43.586Z,636.00
2018-05-03T03:52:44.149Z,696.00
2018-05-03T03:53:43.569Z,752.00
2018-05-03T03:54:43.550Z,816.00
2018-05-03T03:55:43.484Z,876.00
2018-05-03T03:56:43.456Z,948.00
2018-05-03T03:57:44.158Z,992.00
2018-05-03T03:58:43.401Z,984.00
2018-05-03T03:59:43.405Z,940.00
2018-05-03T04:00:43.684Z,876.00
2018-05-03T04:01:43.324Z,816.00
2018-05-03T04:02:44.056Z,772.00
2018-05-03T04:03:44.158Z,728.00
2018-05-03T04:04:43.289Z,708.00
2018-05-03T04:05:43.207Z,684.00
2018-05-03T04:06:44.153Z,664.00
2018-05-03T04:07:43.154Z,652.00
2018-05-03T04:08:43.124Z,640.00
2018-05-03T04:09:43.126Z,632.00
2018-05-03T04:10:43.202Z,604.00
2018-05-03T04:11:43.043Z,572.00
2018-05-03T04:12:43.012Z,548.00
2018-05-03T04:13:43.650Z,532.00
2018-05-03T04:14:42.987Z,528.00
2018-05-03T04:15:42.978Z,544.00
2018-05-03T04:16:43.654Z,572.00
2018-05-03T04:17:42.880Z,604.00
2018-05-03T04:18:43.650Z,624.00
2018-05-03T04:19:42.825Z,628.00
2018-05-03T04:20:42.845Z,628.00
2018-05-03T04:21:43.664Z,612.00
2018-05-03T04:22:42.741Z,592.00
2018-05-03T04:23:42.717Z,568.00
2018-05-03T04:24:42.693Z,556.00
2018-05-03T04:25:42.705Z,556.00
2018-05-03T04:26:42.633Z,564.00
2018-05-03T04:27:42.605Z,584.00
2018-05-03T04:28:42.694Z,604.00
2018-05-03T04:29:42.549Z,632.00
2018-05-03T04:30:43.161Z,700.00
2018-05-03T04:31:42.538Z,804.00
2018-05-03T04:32:42.473Z,896.00
2018-05-03T04:33:42.445Z,976.00
2018-05-03T04:34:42.419Z,1040.00
2018-05-03T04:35:43.223Z,1100.00
2018-05-03T04:36:42.407Z,1112.00
2018-05-03T04:37:42.338Z,1092.00
2018-05-03T04:38:43.172Z,1084.00
2018-05-03T04:39:42.283Z,1112.00
2018-05-03T04:40:43.159Z,1132.00
2018-05-03T04:41:42.272Z,1132.00
2018-05-03T04:42:43.158Z,1148.00
2018-05-03T04:43:42.181Z,1188.00
2018-05-03T04:44:42.144Z,1228.00
2018-05-03T04:45:42.664Z,1284.00
2018-05-03T04:46:42.125Z,1356.00
2018-05-03T04:47:42.071Z,1360.00
2018-05-03T04:48:42.667Z,1412.00
2018-05-03T04:49:42.056Z,1456.00
2018-05-03T04:50:41.984Z,1452.00
2018-05-03T04:51:42.660Z,1436.00
2018-05-03T04:52:41.937Z,1488.00
2018-05-03T04:53:41.947Z,1612.00
2018-05-03T04:54:42.665Z,1804.00
2018-05-03T04:55:41.861Z,2028.00
2018-05-03T04:56:41.826Z,2204.00
2018-05-03T04:57:41.807Z,2360.00
2018-05-03T04:58:41.813Z,2504.00
2018-05-03T04:59:42.661Z,2604.00
2018-05-03T05:00:41.718Z,2684.00
2018-05-03T05:01:42.208Z,2772.00
2018-05-03T05:02:41.659Z,2844.00
2018-05-03T05:03:41.639Z,2944.00
2018-05-03T05:04:41.698Z,3124.00
2018-05-03T05:05:42.166Z,3352.00
2018-05-03T05:06:41.615Z,3620.00
2018-05-03T05:07:41.524Z,3828.00
2018-05-03T05:08:41.506Z,4020.00
2018-05-03T05:09:41.489Z,4152.00
2018-05-03T05:10:42.182Z,4260.00
2018-05-03T05:11:41.464Z,4336.00
2018-05-03T05:12:41.400Z,4428.00
2018-05-03T05:13:42.161Z,4416.00
2018-05-03T05:14:42.162Z,4296.00
2018-05-03T05:15:41.320Z,4304.00
2018-05-03T05:16:41.341Z,4560.00
2018-05-03T05:17:41.262Z,4840.00
2018-05-03T05:18:41.236Z,4944.00
2018-05-03T05:19:41.211Z,5004.00
2018-05-03T05:20:41.183Z,5028.00
2018-05-03T05:21:41.210Z,4968.00
2018-05-03T05:22:41.128Z,5060.00
2018-05-03T05:23:41.141Z,5352.00
2018-05-03T05:24:41.074Z,5688.00
2018-05-03T05:25:41.049Z,5768.00
2018-05-03T05:26:41.024Z,5592.00
2018-05-03T05:27:41.052Z,5300.00
2018-05-03T05:28:40.972Z,5172.00
2018-05-03T05:29:40.961Z,5020.00
2018-05-03T05:30:40.950Z,4816.00
2018-05-03T05:31:40.895Z,4652.00
2018-05-03T05:32:40.923Z,4560.00
2018-05-03T05:33:40.846Z,4540.00
2018-05-03T05:34:40.818Z,4600.00
2018-05-03T05:35:40.800Z,4556.00
2018-05-03T05:36:40.764Z,4352.00
2018-05-03T05:37:40.769Z,4084.00
2018-05-03T05:38:40.772Z,3828.00
2018-05-03T05:39:40.689Z,3684.00
2018-05-03T05:40:40.703Z,3672.00
2018-05-03T05:41:40.637Z,3836.00
2018-05-03T05:42:40.611Z,4092.00
2018-05-03T05:43:40.590Z,4520.00
2018-05-03T05:44:40.558Z,5104.00
2018-05-03T05:45:40.570Z,5640.00
2018-05-03T05:46:40.510Z,5928.00
2018-05-03T05:47:41.179Z,6000.00
2018-05-03T05:48:40.484Z,6124.00
2018-05-03T05:49:40.498Z,6228.00
2018-05-03T05:50:40.450Z,6428.00
2018-05-03T05:51:40.388Z,6828.00
2018-05-03T05:52:40.385Z,7560.00
2018-05-03T05:53:40.328Z,8436.00
2018-05-03T05:54:40.307Z,9008.00
2018-05-03T05:55:40.315Z,9172.00
2018-05-03T05:56:40.289Z,9428.00
2018-05-03T05:57:40.237Z,9664.00
2018-05-03T05:58:40.203Z,9836.00
2018-05-03T05:59:40.229Z,10100.00
2018-05-03T06:00:40.156Z,10364.00
2018-05-03T06:01:40.131Z,10664.00
2018-05-03T06:02:40.105Z,11112.00
2018-05-03T06:03:40.075Z,11896.00
2018-05-03T06:04:40.112Z,12468.00
2018-05-03T06:05:40.027Z,12436.00
2018-05-03T06:06:40.013Z,12048.00
2018-05-03T06:07:39.975Z,11564.00
2018-05-03T06:08:39.954Z,10968.00
2018-05-03T06:09:39.974Z,10416.00
2018-05-03T06:10:39.909Z,9988.00
2018-05-03T06:11:39.884Z,9800.00
2018-05-03T06:12:39.898Z,9748.00
2018-05-03T06:13:39.839Z,9612.00
2018-05-03T06:14:39.808Z,9620.00
2018-05-03T06:15:39.817Z,9856.00
2018-05-03T06:16:39.762Z,10032.00
2018-05-03T06:17:39.779Z,10460.00
2018-05-03T06:18:39.714Z,10720.00
2018-05-03T06:19:39.718Z,10548.00
2018-05-03T06:20:39.675Z,10420.00
2018-05-03T06:21:39.642Z,10252.00
2018-05-03T06:22:39.661Z,10300.00
2018-05-03T06:23:39.595Z,10488.00
2018-05-03T06:24:39.570Z,10392.00
2018-05-03T06:25:39.587Z,10744.00
2018-05-03T06:26:39.533Z,11192.00
2018-05-03T06:27:39.506Z,11292.00
2018-05-03T06:28:39.474Z,11844.00
2018-05-03T06:29:39.489Z,11724.00
2018-05-03T06:30:39.438Z,11924.00
2018-05-03T06:31:39.411Z,12380.00
2018-05-03T06:32:39.386Z,12680.00
2018-05-03T06:33:39.361Z,12768.00
2018-05-03T06:34:39.372Z,12844.00
2018-05-03T06:35:39.364Z,12760.00
2018-05-03T06:36:39.292Z,12760.00
2018-05-03T06:37:39.270Z,13020.00
2018-05-03T06:38:39.245Z,12964.00
2018-05-03T06:39:39.250Z,13068.00
2018-05-03T06:40:39.227Z,13188.00
2018-05-03T06:41:39.176Z,12904.00
2018-05-03T06:42:39.184Z,12400.00
2018-05-03T06:43:39.123Z,11908.00
2018-05-03T06:44:39.110Z,11340.00
2018-05-03T06:45:39.130Z,11092.00
2018-05-03T06:46:39.058Z,11020.00
2018-05-03T06:47:39.038Z,10944.00
2018-05-03T06:48:39.040Z,10724.00
2018-05-03T06:49:38.986Z,10320.00
2018-05-03T06:50:38.959Z,10436.00
2018-05-03T06:51:39.035Z,10612.00
2018-05-03T06:52:38.911Z,10800.00
2018-05-03T06:53:38.925Z,11052.00
2018-05-03T06:54:38.871Z,11392.00
2018-05-03T06:55:38.842Z,11572.00
2018-05-03T06:56:38.854Z,11596.00
2018-05-03T06:57:38.845Z,11376.00
2018-05-03T06:58:38.841Z,10948.00
2018-05-03T06:59:38.753Z,11560.00
2018-05-03T07:00:38.721Z,12248.00
2018-05-03T07:01:39.682Z,12820.00
2018-05-03T07:02:38.727Z,13132.00
2018-05-03T07:03:38.652Z,13032.00
2018-05-03T07:04:38.633Z,12580.00
2018-05-03T07:05:38.607Z,12052.00
2018-05-03T07:06:38.618Z,11584.00
2018-05-03T07:07:38.597Z,10716.00
2018-05-03T07:08:38.538Z,10484.00
2018-05-03T07:09:38.516Z,11436.00
2018-05-03T07:10:38.489Z,12028.00
2018-05-03T07:11:38.504Z,12272.00
2018-05-03T07:12:38.441Z,12708.00
2018-05-03T07:13:38.459Z,13120.00
2018-05-03T07:14:38.394Z,13452.00
2018-05-03T07:15:38.367Z,13588.00
2018-05-03T07:16:38.342Z,13468.00
2018-05-03T07:17:38.328Z,13320.00
2018-05-03T07:18:38.332Z,13264.00
2018-05-03T07:19:38.747Z,13548.00
2018-05-03T07:20:38.253Z,14120.00
2018-05-03T07:21:38.229Z,14404.00
2018-05-03T07:22:38.204Z,14708.00
2018-05-03T07:23:38.179Z,14900.00
2018-05-03T07:24:38.192Z,15104.00
2018-05-03T07:25:38.136Z,15456.00
2018-05-03T07:26:38.115Z,16088.00
2018-05-03T07:27:38.098Z,16960.00
2018-05-03T07:28:38.064Z,17248.00
2018-05-03T07:29:38.076Z,17472.00
2018-05-03T07:30:38.019Z,17472.00
2018-05-03T07:31:38.707Z,17280.00
2018-05-03T07:32:38.012Z,17216.00
2018-05-03T07:33:37.993Z,17024.00
2018-05-03T07:34:37.966Z,16672.00
2018-05-03T07:35:37.905Z,16544.00
2018-05-03T07:36:37.878Z,16576.00
2018-05-03T07:37:37.858Z,16280.00
2018-05-03T07:38:37.842Z,16296.00
2018-05-03T07:39:37.857Z,16544.00
2018-05-03T07:40:37.839Z,16640.00
2018-05-03T07:41:38.693Z,16672.00
2018-05-03T07:42:37.745Z,16608.00
2018-05-03T07:43:37.723Z,16216.00
2018-05-03T07:44:37.727Z,16064.00
2018-05-03T07:45:37.689Z,16100.00
2018-05-03T07:46:37.655Z,16376.00
2018-05-03T07:47:38.190Z,16960.00
2018-05-03T07:48:37.682Z,17248.00
2018-05-03T07:49:37.584Z,17248.00
2018-05-03T07:50:37.565Z,17440.00
2018-05-03T07:51:37.539Z,17664.00
2018-05-03T07:52:37.515Z,17984.00
2018-05-03T07:53:37.529Z,17920.00
2018-05-03T07:54:37.500Z,16512.00
2018-05-03T07:55:38.196Z,15316.00
2018-05-03T07:56:37.464Z,15040.00
2018-05-03T07:57:37.402Z,14992.00
2018-05-03T07:58:37.383Z,14868.00
2018-05-03T07:59:39.491Z,14660.00
2018-05-03T08:00:37.334Z,13920.00
2018-05-03T08:01:37.319Z,12936.00
2018-05-03T08:02:37.302Z,11548.00
2018-05-03T08:03:37.270Z,10568.00
2018-05-03T08:04:37.288Z,9652.00
2018-05-03T08:05:37.229Z,8664.00
2018-05-03T08:06:38.201Z,8020.00
2018-05-03T08:07:37.182Z,7500.00
2018-05-03T08:08:37.155Z,7612.00
2018-05-03T08:09:37.185Z,7516.00
2018-05-03T08:10:37.109Z,7448.00
2018-05-03T08:11:37.701Z,7300.00
2018-05-03T08:12:37.113Z,7000.00
2018-05-03T08:13:37.036Z,6840.00
2018-05-03T08:14:37.078Z,6864.00
2018-05-03T08:15:36.993Z,7000.00
2018-05-03T08:16:37.703Z,7224.00
2018-05-03T08:17:36.949Z,7328.00
2018-05-03T08:18:36.922Z,7540.00
2018-05-03T08:19:36.928Z,7612.00
2018-05-03T08:20:36.917Z,7540.00
2018-05-03T08:21:37.706Z,7356.00
2018-05-03T08:22:36.823Z,7160.00
2018-05-03T08:23:36.798Z,7052.00
2018-05-03T08:24:36.783Z,6956.00
2018-05-03T08:25:36.818Z,6924.00
2018-05-03T08:26:37.243Z,6900.00
2018-05-03T08:27:36.703Z,6932.00
2018-05-03T08:28:37.238Z,6920.00
2018-05-03T08:29:36.661Z,6884.00
2018-05-03T08:30:36.669Z,6788.00
2018-05-03T08:31:36.605Z,6800.00
2018-05-03T08:32:36.581Z,6800.00
2018-05-03T08:33:36.554Z,6784.00
2018-05-03T08:34:36.533Z,6756.00
2018-05-03T08:35:36.552Z,6772.00
2018-05-03T08:36:36.557Z,6816.00
2018-05-03T08:37:36.459Z,6792.00
2018-05-03T08:38:36.439Z,6740.00
2018-05-03T08:39:36.409Z,6736.00
2018-05-03T08:40:36.426Z,6764.00
2018-05-03T08:41:36.411Z,6744.00
2018-05-03T08:42:36.346Z,6768.00
2018-05-03T08:43:36.313Z,6908.00
2018-05-03T08:44:36.292Z,6988.00
2018-05-03T08:45:36.263Z,6964.00
2018-05-03T08:46:36.284Z,6840.00
2018-05-03T08:47:36.277Z,6712.00
2018-05-03T08:48:36.197Z,6640.00
2018-05-03T08:49:36.170Z,6640.00
2018-05-03T08:50:36.147Z,6532.00
2018-05-03T08:51:50.717Z,6448.00
2018-05-03T08:52:36.136Z,6604.00
2018-05-03T08:53:36.074Z,6560.00
2018-05-03T08:54:36.059Z,6564.00
2018-05-03T08:55:36.044Z,6612.00
2018-05-03T08:56:36.000Z,6516.00
2018-05-03T08:57:36.008Z,6424.00
2018-05-03T08:58:35.949Z,6756.00
2018-05-03T08:59:35.963Z,7460.00
2018-05-03T09:00:35.898Z,7972.00
2018-05-03T09:01:35.966Z,8252.00
2018-05-03T09:02:35.897Z,8168.00
2018-05-03T09:03:35.835Z,7792.00
2018-05-03T09:04:35.809Z,7728.00
2018-05-03T09:05:35.785Z,7660.00
2018-05-03T09:06:35.765Z,7656.00
2018-05-03T09:07:35.864Z,7648.00
2018-05-03T09:08:35.748Z,7972.00
2018-05-03T09:09:35.689Z,7944.00
2018-05-03T09:10:35.693Z,8136.00
2018-05-03T09:11:36.212Z,8096.00
2018-05-03T09:12:35.621Z,7224.00
2018-05-03T09:13:35.636Z,6884.00
2018-05-03T09:14:35.568Z,6760.00
2018-05-03T09:15:35.552Z,6860.00
2018-05-03T09:16:36.270Z,7028.00
2018-05-03T09:17:35.496Z,7168.00
2018-05-03T09:18:35.514Z,7148.00
2018-05-03T09:19:35.444Z,7156.00
2018-05-03T09:20:35.428Z,7396.00
2018-05-03T09:21:36.213Z,7512.00
2018-05-03T09:22:35.373Z,7524.00
2018-05-03T09:23:35.396Z,7508.00
2018-05-03T09:24:35.381Z,7516.00
2018-05-03T09:25:35.309Z,7532.00
2018-05-03T09:26:35.280Z,7540.00
2018-05-03T09:27:35.259Z,7532.00
2018-05-03T09:28:35.267Z,7580.00
2018-05-03T09:29:35.217Z,7672.00
2018-05-03T09:30:35.215Z,7904.00
2018-05-03T09:31:35.735Z,8472.00
2018-05-03T09:32:35.144Z,9008.00
2018-05-03T09:33:35.113Z,9228.00
2018-05-03T09:34:35.089Z,9580.00
2018-05-03T09:35:35.110Z,10508.00
2018-05-03T09:36:37.731Z,12076.00
2018-05-03T09:37:35.021Z,14036.00
2018-05-03T09:38:35.045Z,15600.00
2018-05-03T09:39:35.025Z,17120.00
2018-05-03T09:40:35.716Z,17984.00
2018-05-03T09:41:34.920Z,18304.00
2018-05-03T09:42:34.904Z,18464.00
2018-05-03T09:43:34.879Z,18464.00
2018-05-03T09:44:34.890Z,18240.00
2018-05-03T09:45:35.283Z,17760.00
2018-05-03T09:46:34.808Z,17376.00
2018-05-03T09:47:34.785Z,17344.00
2018-05-03T09:48:34.762Z,17536.00
2018-05-03T09:49:34.746Z,18144.00
2018-05-03T09:50:34.754Z,18560.00
2018-05-03T09:51:35.273Z,18784.00
2018-05-03T09:52:34.753Z,18656.00
2018-05-03T09:53:34.647Z,18592.00
2018-05-03T09:54:34.648Z,17952.00
2018-05-03T09:55:34.643Z,16896.00
2018-05-03T09:56:34.623Z,15408.00
2018-05-03T09:57:34.561Z,14340.00
2018-05-03T09:58:34.544Z,14124.00
2018-05-03T09:59:34.519Z,13956.00
2018-05-03T10:00:34.525Z,13324.00
2018-05-03T10:01:34.475Z,12496.00
2018-05-03T10:02:34.455Z,11964.00
2018-05-03T10:03:34.436Z,10928.00
2018-05-03T10:04:34.409Z,10284.00
2018-05-03T10:05:34.421Z,9692.00
2018-05-03T10:06:34.373Z,9412.00
2018-05-03T10:07:34.352Z,9180.00
2018-05-03T10:08:34.357Z,8828.00
2018-05-03T10:09:34.297Z,8644.00
2018-05-03T10:10:34.310Z,8592.00
2018-05-03T10:11:34.295Z,8476.00
2018-05-03T10:12:34.237Z,8216.00
2018-05-03T10:13:34.208Z,7856.00
2018-05-03T10:14:34.196Z,7660.00
2018-05-03T10:15:34.165Z,7464.00
2018-05-03T10:16:34.227Z,7336.00
2018-05-03T10:17:34.140Z,7308.00
2018-05-03T10:18:34.097Z,7324.00
2018-05-03T10:19:34.076Z,7316.00
2018-05-03T10:20:34.055Z,7316.00
2018-05-03T10:21:34.073Z,7204.00
2018-05-03T10:22:34.080Z,6860.00
2018-05-03T10:23:33.985Z,6476.00
2018-05-03T10:24:33.965Z,6676.00
2018-05-03T10:25:33.944Z,6904.00
2018-05-03T10:26:33.976Z,6992.00
2018-05-03T10:27:33.891Z,6960.00
2018-05-03T10:28:33.869Z,6892.00
2018-05-03T10:29:33.858Z,6848.00
2018-05-03T10:30:34.731Z,6832.00
2018-05-03T10:31:33.864Z,6832.00
2018-05-03T10:32:33.780Z,6812.00
2018-05-03T10:33:33.755Z,6812.00
2018-05-03T10:34:33.733Z,6828.00
2018-05-03T10:35:33.711Z,6820.00
2018-05-03T10:36:33.731Z,6824.00
2018-05-03T10:37:33.662Z,6824.00
2018-05-03T10:38:33.688Z,6836.00
2018-05-03T10:39:33.618Z,6844.00
2018-05-03T10:40:34.233Z,6852.00
2018-05-03T10:41:33.575Z,6840.00
2018-05-03T10:42:33.547Z,6856.00
2018-05-03T10:43:33.566Z,6872.00
2018-05-03T10:44:33.506Z,6892.00
2018-05-03T10:45:34.280Z,6900.00
2018-05-03T10:46:33.456Z,6888.00
2018-05-03T10:47:33.478Z,6868.00
2018-05-03T10:48:33.410Z,6848.00
2018-05-03T10:49:33.390Z,6836.00
2018-05-03T10:50:33.373Z,6840.00
2018-05-03T10:51:33.347Z,6856.00
2018-05-03T10:52:33.349Z,6900.00
2018-05-03T10:53:33.310Z,6948.00
2018-05-03T10:54:33.274Z,7124.00
2018-05-03T10:55:34.235Z,7424.00
2018-05-03T10:56:33.281Z,7104.00
2018-05-03T10:57:33.270Z,7028.00
2018-05-03T10:58:33.184Z,7036.00
2018-05-03T10:59:33.157Z,7048.00
2018-05-03T11:00:33.305Z,7120.00
2018-05-03T11:01:33.201Z,7212.00
2018-05-03T11:02:33.104Z,7264.00
2018-05-03T11:03:33.074Z,7388.00
2018-05-03T11:04:33.059Z,7544.00
2018-05-03T11:05:33.884Z,7580.00
2018-05-03T11:06:33.038Z,7460.00
2018-05-03T11:07:33.025Z,7048.00
2018-05-03T11:08:32.952Z,6860.00
2018-05-03T11:09:32.949Z,7300.00
2018-05-03T11:10:33.739Z,7736.00
2018-05-03T11:11:32.886Z,8036.00
2018-05-03T11:12:32.915Z,7956.00
2018-05-03T11:13:32.885Z,8052.00
2018-05-03T11:14:32.852Z,7956.00
2018-05-03T11:15:33.759Z,7920.00
2018-05-03T11:16:32.895Z,7868.00
2018-05-03T11:17:32.751Z,7896.00
2018-05-03T11:18:32.728Z,8128.00
2018-05-03T11:19:32.718Z,8424.00
2018-05-03T11:20:32.689Z,8528.00
2018-05-03T11:21:32.705Z,8780.00
2018-05-03T11:22:32.641Z,9324.00
2018-05-03T11:23:32.630Z,9188.00
2018-05-03T11:24:32.595Z,9740.00
2018-05-03T11:25:32.573Z,9656.00
2018-05-03T11:26:32.595Z,9832.00
2018-05-03T11:27:32.529Z,10624.00
2018-05-03T11:28:32.594Z,11952.00
2018-05-03T11:29:32.481Z,12976.00
2018-05-03T11:30:32.471Z,14028.00
2018-05-03T11:31:32.522Z,14604.00
2018-05-03T11:32:32.412Z,14148.00
2018-05-03T11:33:32.450Z,13200.00
2018-05-03T11:34:32.374Z,12928.00
2018-05-03T11:35:32.357Z,13168.00
2018-05-03T11:36:32.331Z,12776.00
2018-05-03T11:37:32.305Z,12396.00
2018-05-03T11:38:32.338Z,11924.00
2018-05-03T11:39:32.266Z,11536.00
2018-05-03T11:40:32.239Z,11116.00
2018-05-03T11:41:32.223Z,10476.00
2018-05-03T11:42:32.237Z,9772.00
2018-05-03T11:43:32.219Z,9044.00
2018-05-03T11:44:32.303Z,8564.00
2018-05-03T11:45:32.181Z,8192.00
2018-05-03T11:46:32.147Z,7920.00
2018-05-03T11:47:32.089Z,7696.00
2018-05-03T11:48:32.067Z,7520.00
2018-05-03T11:49:32.046Z,7404.00
2018-05-03T11:50:32.068Z,7288.00
2018-05-03T11:51:32.008Z,7156.00
2018-05-03T11:52:31.978Z,6944.00
2018-05-03T11:53:31.959Z,6744.00
2018-05-03T11:54:31.938Z,6624.00
2018-05-03T11:55:31.969Z,6552.00
2018-05-03T11:56:31.895Z,6504.00
2018-05-03T11:57:31.875Z,6452.00
2018-05-03T11:58:31.852Z,6432.00
2018-05-03T11:59:32.009Z,6376.00
2018-05-03T12:00:31.859Z,6332.00
2018-05-03T12:01:31.785Z,6312.00
2018-05-03T12:02:31.859Z,6272.00
2018-05-03T12:03:31.739Z,6220.00
2018-05-03T12:04:32.277Z,6184.00
2018-05-03T12:05:31.702Z,6168.00
2018-05-03T12:06:31.722Z,6160.00
2018-05-03T12:07:31.692Z,6152.00
2018-05-03T12:08:31.634Z,6120.00
2018-05-03T12:09:32.251Z,6080.00
2018-05-03T12:10:31.627Z,6048.00
2018-05-03T12:11:31.567Z,6056.00
2018-05-03T12:12:31.576Z,6072.00
2018-05-03T12:13:31.523Z,6060.00
2018-05-03T12:14:31.496Z,6040.00
2018-05-03T12:15:31.480Z,6032.00
2018-05-03T12:16:31.463Z,6040.00
2018-05-03T12:17:31.467Z,6036.00
2018-05-03T12:18:31.413Z,5984.00
2018-05-03T12:19:31.388Z,5968.00
2018-05-03T12:20:31.422Z,5936.00
2018-05-03T12:21:31.342Z,5904.00